createdAt,value
2018-01-19T00:01:01.149Z,92.30
2018-01-19T00:03:29.189Z,92.40
2018-01-19T00:05:59.001Z,92.70
2018-01-19T00:11:10.170Z,93.60
2018-01-19T00:13:36.870Z,93.00
2018-01-19T00:16:03.449Z,93.20
2018-01-19T00:18:30.397Z,93.60
2018-01-19T00:20:59.710Z,93.60
2018-01-19T00:23:30.544Z,93.70
2018-01-19T00:26:02.384Z,93.40
2018-01-19T00:28:29.875Z,93.50
2018-01-19T00:31:13.333Z,93.50
2018-01-19T00:33:40.865Z,93.70
2018-01-19T00:36:09.929Z,93.60
2018-01-19T00:38:40.968Z,93.60
2018-01-19T00:41:07.541Z,93.60
2018-01-19T00:43:34.099Z,93.60
2018-01-19T00:46:00.665Z,93.10
2018-01-19T00:48:29.365Z,93.30
2018-01-19T00:50:59.657Z,93.30
2018-01-19T00:53:38.121Z,93.90
2018-01-19T00:56:05.524Z,94.30
2018-01-19T01:02:31.099Z,93.90
2018-01-19T01:05:00.160Z,94.40
2018-01-19T01:07:31.065Z,94.40
2018-01-19T01:10:01.332Z,93.90
2018-01-19T01:12:30.744Z,93.80
2018-01-19T01:15:00.048Z,94.20
2018-01-19T01:17:31.097Z,94.30
2018-01-19T01:23:08.156Z,94.40
2018-01-19T01:25:34.958Z,94.40
2018-01-19T01:28:25.854Z,94.50
2018-01-19T01:31:08.986Z,94.40
2018-01-19T01:33:36.700Z,94.30
2018-01-19T01:36:03.245Z,94.10
2018-01-19T01:38:56.241Z,94.30
2018-01-19T01:47:58.761Z,95.00
2018-01-19T01:50:30.552Z,95.00
2018-01-19T01:52:59.876Z,95.00
2018-01-19T01:55:30.684Z,95.10
2018-01-19T01:58:00.513Z,95.10
2018-01-19T02:00:29.744Z,95.10
2018-01-19T02:03:00.513Z,94.90
2018-01-19T02:05:30.809Z,95.10
2018-01-19T02:07:58.745Z,94.80
2018-01-19T02:10:28.528Z,95.10
2018-01-19T02:12:56.985Z,95.20
2018-01-19T02:15:33.237Z,95.10
2018-01-19T02:18:13.876Z,95.20
2018-01-19T02:20:40.478Z,95.50
2018-01-19T02:23:07.069Z,95.70
2018-01-19T02:25:33.973Z,95.20
2018-01-19T02:28:00.969Z,95.20
2018-01-19T02:30:30.468Z,94.70
2018-01-19T02:33:00.717Z,94.70
2018-01-19T02:35:30.690Z,94.60
2018-01-19T02:37:59.669Z,94.60
2018-01-19T02:40:29.716Z,94.50
2018-01-19T02:43:00.488Z,94.60
2018-01-19T02:45:30.697Z,94.70
2018-01-19T02:48:00.538Z,94.90
2018-01-19T02:50:30.482Z,94.90
2018-01-19T02:53:00.861Z,94.60
2018-01-19T02:55:30.600Z,94.50
2018-01-19T02:58:00.601Z,94.60
2018-01-19T03:00:30.899Z,94.60
2018-01-19T03:03:21.277Z,94.50
2018-01-19T03:06:00.617Z,94.50
2018-01-19T03:08:30.392Z,94.50
2018-01-19T03:11:00.664Z,94.20
2018-01-19T03:13:30.925Z,94.20
2018-01-19T03:16:00.633Z,94.30
2018-01-19T03:18:30.736Z,94.40
2018-01-19T03:21:00.817Z,94.10
2018-01-19T03:23:31.163Z,94.00
2018-01-19T03:26:01.044Z,94.20
2018-01-19T03:28:30.744Z,94.20
2018-01-19T03:31:01.053Z,94.60
2018-01-19T03:33:30.786Z,94.60
2018-01-19T03:36:00.859Z,94.70
2018-01-19T03:38:30.997Z,94.50
2018-01-19T03:41:00.781Z,94.50
2018-01-19T03:43:30.739Z,94.70
2018-01-19T03:46:01.067Z,94.40
2018-01-19T03:48:30.909Z,94.50
2018-01-19T03:51:00.255Z,94.70
2018-01-19T03:53:31.021Z,94.70
2018-01-19T03:56:01.261Z,94.60
2018-01-19T03:58:30.769Z,94.60
2018-01-19T04:01:01.038Z,94.70
2018-01-19T04:03:29.964Z,94.70
2018-01-19T04:06:18.751Z,94.90
2018-01-19T04:08:56.953Z,94.80
2018-01-19T04:11:29.182Z,94.90
2018-01-19T04:13:59.025Z,94.90
2018-01-19T04:16:28.548Z,94.90
2018-01-19T04:19:00.233Z,94.90
2018-01-19T04:21:30.233Z,95.00
2018-01-19T04:24:00.242Z,95.20
2018-01-19T04:26:30.313Z,95.20
2018-01-19T04:28:59.261Z,95.20
2018-01-19T04:31:29.268Z,95.40
2018-01-19T04:33:56.949Z,95.10
2018-01-19T04:36:24.832Z,95.10
2018-01-19T04:38:58.060Z,95.20
2018-01-19T04:41:29.566Z,95.20
2018-01-19T04:43:59.220Z,95.30
2018-01-19T04:46:29.235Z,95.40
2018-01-19T04:48:59.264Z,95.60
2018-01-19T04:51:30.155Z,95.80
2018-01-19T04:53:59.473Z,95.70
2018-01-19T04:56:29.412Z,95.90
2018-01-19T04:58:58.493Z,95.30
2018-01-19T05:01:29.930Z,95.20
2018-01-19T05:03:59.077Z,95.20
2018-01-19T05:06:29.136Z,94.30
2018-01-19T05:08:58.057Z,94.30
2018-01-19T05:11:28.089Z,94.20
2018-01-19T05:13:59.581Z,94.00
2018-01-19T05:16:30.426Z,93.70
2018-01-19T05:18:59.224Z,93.60
2018-01-19T05:21:29.766Z,93.80
2018-01-19T05:23:57.095Z,93.60
2018-01-19T05:26:25.639Z,90.10
2018-01-19T05:28:55.241Z,90.10
2018-01-19T05:31:28.216Z,91.20
2018-01-19T05:33:59.217Z,92.70
2018-01-19T05:36:30.420Z,93.80
2018-01-19T05:39:00.177Z,94.40
2018-01-19T05:41:30.619Z,94.40
2018-01-19T05:43:59.472Z,95.10
2018-01-19T05:46:35.398Z,96.10
2018-01-19T05:49:03.389Z,96.40
2018-01-19T05:51:34.673Z,96.40
2018-01-19T05:54:01.769Z,96.70
2018-01-19T05:56:29.765Z,97.00
2018-01-19T05:59:08.718Z,97.10
2018-01-19T06:01:36.897Z,97.10
2018-01-19T06:04:03.916Z,97.40
2018-01-19T06:06:30.492Z,97.40
2018-01-19T06:08:59.925Z,97.50
2018-01-19T06:11:28.593Z,97.60
2018-01-19T06:13:59.693Z,97.60
2018-01-19T06:16:29.693Z,97.60
2018-01-19T06:18:59.560Z,97.90
2018-01-19T06:21:29.217Z,97.70
2018-01-19T06:23:56.784Z,97.40
2018-01-19T06:26:25.455Z,97.40
2018-01-19T06:28:56.268Z,97.20
2018-01-19T06:31:24.313Z,96.90
2018-01-19T06:33:55.274Z,96.70
2018-01-19T06:36:26.053Z,96.70
2018-01-19T06:38:55.194Z,96.60
2018-01-19T06:41:23.205Z,96.70
2018-01-19T06:43:50.452Z,96.70
2018-01-19T06:46:18.042Z,96.30
2018-01-19T06:48:45.103Z,95.90
2018-01-19T06:51:15.705Z,95.90
2018-01-19T06:53:43.885Z,96.10
2018-01-19T06:56:11.896Z,96.10
2018-01-19T06:58:38.773Z,96.30
2018-01-19T07:01:05.349Z,95.80
2018-01-19T07:03:32.249Z,95.00
2018-01-19T07:05:58.964Z,95.00
2018-01-19T07:08:26.993Z,95.60
2018-01-19T07:10:55.884Z,95.60
2018-01-19T07:13:24.721Z,95.40
2018-01-19T07:15:54.654Z,95.70
2018-01-19T07:18:26.289Z,95.70
2018-01-19T07:20:55.858Z,95.10
2018-01-19T07:23:24.884Z,95.00
2018-01-19T07:25:54.972Z,95.00
2018-01-19T07:28:28.518Z,95.00
2018-01-19T07:30:56.096Z,94.60
2018-01-19T07:33:23.646Z,94.70
2018-01-19T07:35:54.567Z,94.80
2018-01-19T07:38:23.774Z,94.90
2018-01-19T07:40:55.088Z,94.30
2018-01-19T07:43:28.193Z,94.60
2018-01-19T07:45:58.348Z,95.10
2018-01-19T07:48:27.729Z,95.30
2018-01-19T07:50:58.185Z,95.20
2018-01-19T07:53:34.738Z,95.20
2018-01-19T07:56:04.566Z,94.00
2018-01-19T07:58:31.297Z,93.00
2018-01-19T08:00:58.604Z,90.00
2018-01-19T08:03:25.808Z,89.00
2018-01-19T08:05:56.133Z,89.10
2018-01-19T08:08:25.740Z,88.40
2018-01-19T08:10:57.601Z,88.10
2018-01-19T08:13:28.283Z,86.70
2018-01-19T08:15:56.787Z,86.70
2018-01-19T08:18:26.008Z,85.70
2018-01-19T08:20:57.024Z,84.10
2018-01-19T08:23:27.109Z,83.20
2018-01-19T08:25:58.021Z,83.10
2018-01-19T08:28:28.173Z,84.00
2018-01-19T08:30:57.768Z,84.50
2018-01-19T08:33:28.189Z,84.60
2018-01-19T08:35:56.798Z,84.80
2018-01-19T08:38:27.060Z,85.20
2018-01-19T08:40:58.133Z,85.30
2018-01-19T08:43:34.100Z,85.60
2018-01-19T08:46:00.668Z,84.90
2018-01-19T08:48:27.862Z,84.50
2018-01-19T08:50:56.265Z,82.90
2018-01-19T08:53:24.432Z,82.90
2018-01-19T08:55:55.178Z,82.00
2018-01-19T08:58:24.912Z,82.50
2018-01-19T09:00:54.405Z,82.00
2018-01-19T09:03:25.548Z,82.20
2018-01-19T09:05:55.389Z,82.20
2018-01-19T09:08:26.003Z,80.60
2018-01-19T09:10:55.597Z,77.10
2018-01-19T09:13:25.197Z,77.10
2018-01-19T09:15:55.296Z,76.50
2018-01-19T09:18:24.840Z,76.50
2018-01-19T09:20:57.340Z,75.90
2018-01-19T09:23:26.146Z,76.50
2018-01-19T09:25:53.779Z,76.90
2018-01-19T09:28:21.485Z,77.70
2018-01-19T09:30:55.143Z,78.20
2018-01-19T09:33:24.664Z,78.20
2018-01-19T09:35:54.751Z,77.70
2018-01-19T09:38:25.083Z,77.70
2018-01-19T09:40:55.134Z,77.60
2018-01-19T09:43:23.922Z,76.40
2018-01-19T09:45:54.322Z,77.00
2018-01-19T09:48:24.467Z,77.70
2018-01-19T09:50:54.158Z,75.60
2018-01-19T09:53:24.485Z,76.60
2018-01-19T09:55:54.392Z,76.70
2018-01-19T09:58:23.747Z,75.50
2018-01-19T10:00:54.422Z,76.70
2018-01-19T10:03:24.536Z,76.70
2018-01-19T10:05:54.437Z,78.00
2018-01-19T10:08:24.379Z,77.60
2018-01-19T10:10:52.654Z,77.50
2018-01-19T10:13:23.746Z,77.90
2018-01-19T10:15:53.677Z,76.10
2018-01-19T10:18:22.122Z,75.90
2018-01-19T10:20:50.449Z,74.60
2018-01-19T10:23:21.529Z,73.70
2018-01-19T10:25:52.816Z,71.90
2018-01-19T10:28:21.088Z,71.70
2018-01-19T10:30:51.055Z,70.90
2018-01-19T10:33:22.165Z,69.70
2018-01-19T10:35:52.165Z,69.00
2018-01-19T10:38:22.303Z,69.00
2018-01-19T10:40:51.535Z,70.40
2018-01-19T10:43:21.738Z,70.30
2018-01-19T10:45:54.349Z,70.30
2018-01-19T10:48:24.133Z,69.40
2018-01-19T10:50:53.120Z,71.00
2018-01-19T10:53:24.251Z,70.60
2018-01-19T10:55:53.393Z,70.80
2018-01-19T10:58:24.048Z,70.80
2018-01-19T11:00:52.532Z,71.10
2018-01-19T11:03:19.729Z,71.10
2018-01-19T11:05:46.812Z,70.50
2018-01-19T11:08:14.013Z,71.10
2018-01-19T11:10:41.440Z,71.60
2018-01-19T11:13:08.320Z,71.60
2018-01-19T11:15:34.880Z,71.50
2018-01-19T11:18:01.417Z,72.10
2018-01-19T11:20:28.500Z,72.00
2018-01-19T11:22:55.781Z,72.10
2018-01-19T11:25:25.607Z,72.10
2018-01-19T11:27:54.542Z,70.50
2018-01-19T11:30:24.762Z,70.50
2018-01-19T11:32:54.375Z,70.40
2018-01-19T11:35:25.099Z,70.30
2018-01-19T11:37:54.080Z,70.80
2018-01-19T11:40:23.909Z,70.80
2018-01-19T11:42:55.160Z,69.30
2018-01-19T11:45:25.345Z,69.40
2018-01-19T11:47:53.402Z,69.40
2018-01-19T11:50:29.210Z,69.40
2018-01-19T11:52:56.959Z,69.10
2018-01-19T11:55:25.223Z,69.10
2018-01-19T11:57:55.035Z,66.90
2018-01-19T12:00:22.592Z,66.60
2018-01-19T12:02:53.892Z,65.50
2018-01-19T12:05:21.588Z,64.70
2018-01-19T12:07:58.911Z,66.10
2018-01-19T12:10:27.098Z,64.30
2018-01-19T12:12:54.729Z,64.30
2018-01-19T12:15:24.067Z,63.40
2018-01-19T12:17:55.576Z,62.10
2018-01-19T12:20:24.467Z,61.90
2018-01-19T12:22:53.173Z,61.90
2018-01-19T12:25:22.466Z,63.20
2018-01-19T12:27:49.493Z,63.20
2018-01-19T12:30:16.868Z,63.60
2018-01-19T12:32:44.512Z,63.50
2018-01-19T12:35:12.077Z,64.20
2018-01-19T12:37:39.121Z,65.20
2018-01-19T12:40:05.776Z,64.90
2018-01-19T12:42:32.368Z,65.40
2018-01-19T12:44:58.909Z,65.60
2018-01-19T12:47:26.134Z,66.60
2018-01-19T12:49:54.662Z,66.00
2018-01-19T12:52:22.928Z,65.30
2018-01-19T12:54:52.729Z,65.80
2018-01-19T12:57:19.981Z,65.80
2018-01-19T12:59:46.849Z,65.90
2018-01-19T13:02:13.764Z,66.10
2018-01-19T13:04:40.884Z,66.60
2018-01-19T13:07:08.544Z,65.30
2018-01-19T13:09:35.709Z,65.30
2018-01-19T13:12:02.777Z,64.00
2018-01-19T13:14:29.399Z,64.30
2018-01-19T13:16:56.478Z,64.30
2018-01-19T13:19:27.736Z,64.70
2018-01-19T13:21:55.291Z,64.80
2018-01-19T13:24:24.979Z,63.20
2018-01-19T13:26:55.001Z,63.20
2018-01-19T13:29:27.642Z,63.70
2018-01-19T13:31:56.521Z,64.80
2018-01-19T13:34:25.557Z,63.60
2018-01-19T13:36:56.416Z,62.50
2018-01-19T13:39:25.138Z,63.70
2018-01-19T13:41:55.509Z,63.70
2018-01-19T13:44:29.485Z,63.80
2018-01-19T13:46:57.209Z,63.90
2018-01-19T13:49:24.884Z,62.70
2018-01-19T13:51:54.924Z,63.20
2018-01-19T13:54:24.225Z,64.20
2018-01-19T13:56:56.099Z,63.20
2018-01-19T13:59:26.942Z,62.60
2018-01-19T14:01:57.109Z,62.80
2018-01-19T14:04:27.600Z,62.00
2018-01-19T14:06:59.343Z,63.60
2018-01-19T14:09:26.867Z,63.50
2018-01-19T14:11:55.162Z,62.20
2018-01-19T14:14:24.782Z,61.90
2018-01-19T14:16:55.972Z,62.10
2018-01-19T14:19:26.082Z,63.00
2018-01-19T14:21:56.419Z,63.00
2018-01-19T14:24:25.513Z,63.70
2018-01-19T14:26:54.607Z,63.80
2018-01-19T14:29:25.197Z,64.50
2018-01-19T14:31:55.041Z,64.50
2018-01-19T14:34:24.576Z,64.40
2018-01-19T14:36:58.021Z,64.50
2018-01-19T14:39:25.582Z,64.20
2018-01-19T14:41:54.379Z,64.30
2018-01-19T14:44:23.938Z,65.00
2018-01-19T14:46:59.370Z,65.10
2018-01-19T14:49:26.880Z,65.70
2018-01-19T14:51:57.686Z,66.40
2018-01-19T14:54:25.064Z,66.60
2018-01-19T14:56:54.438Z,66.70
2018-01-19T14:59:24.394Z,66.80
2018-01-19T15:01:52.304Z,66.50
2018-01-19T15:04:24.092Z,67.20
2018-01-19T15:06:54.303Z,67.00
2018-01-19T15:09:24.646Z,68.20
2018-01-19T15:11:53.831Z,68.10
2018-01-19T15:14:29.735Z,68.10
2018-01-19T15:16:57.637Z,68.70
2018-01-19T15:19:25.627Z,69.60
2018-01-19T15:21:58.721Z,69.60
2018-01-19T15:24:26.668Z,69.50
2018-01-19T15:26:55.545Z,69.90
2018-01-19T15:29:24.063Z,70.00
2018-01-19T15:31:54.286Z,70.90
2018-01-19T15:34:26.247Z,72.00
2018-01-19T15:36:55.203Z,72.90
2018-01-19T15:39:27.417Z,72.90
2018-01-19T15:41:55.917Z,74.60
2018-01-19T15:44:27.420Z,74.60
2018-01-19T15:46:55.380Z,74.80
2018-01-19T15:49:32.828Z,75.90
2018-01-19T15:51:59.945Z,76.00
2018-01-19T15:54:26.973Z,76.60
2018-01-19T15:56:54.668Z,77.70
2018-01-19T15:59:24.343Z,78.70
2018-01-19T16:01:54.465Z,79.50
2018-01-19T16:04:23.958Z,80.10
2018-01-19T16:06:54.038Z,80.60
2018-01-19T16:09:23.841Z,81.10
2018-01-19T16:11:53.705Z,81.60
2018-01-19T16:14:25.069Z,82.10
2018-01-19T16:16:54.474Z,82.10
2018-01-19T16:19:25.718Z,82.20
2018-01-19T16:21:55.096Z,82.50
2018-01-19T16:24:25.872Z,82.80
2018-01-19T16:26:54.681Z,83.10
2018-01-19T16:29:23.851Z,83.10
2018-01-19T16:31:53.477Z,83.50
2018-01-19T16:34:23.712Z,84.00
2018-01-19T16:36:52.932Z,84.00
2018-01-19T16:39:22.080Z,84.00
2018-01-19T16:41:54.126Z,84.20
2018-01-19T16:44:23.700Z,84.70
2018-01-19T16:46:53.171Z,84.70
2018-01-19T16:49:23.721Z,84.90
2018-01-19T16:51:53.532Z,84.70
2018-01-19T16:54:23.076Z,84.50
2018-01-19T16:56:52.620Z,85.00
2018-01-19T16:59:22.277Z,85.00
2018-01-19T17:01:53.533Z,85.50
2018-01-19T17:04:23.969Z,85.50
2018-01-19T17:06:53.730Z,85.50
2018-01-19T17:09:23.927Z,85.60
2018-01-19T17:11:53.089Z,85.70
2018-01-19T17:14:23.976Z,85.70
2018-01-19T17:16:53.895Z,85.80
2018-01-19T17:19:23.778Z,86.10
2018-01-19T17:21:54.372Z,85.90
2018-01-19T17:24:25.351Z,85.70
2018-01-19T17:27:04.794Z,85.60
2018-01-19T17:29:31.397Z,85.50
2018-01-19T17:31:58.154Z,85.50
2018-01-19T17:34:25.780Z,85.40
2018-01-19T17:36:54.967Z,85.40
2018-01-19T17:39:24.448Z,85.40
2018-01-19T17:41:54.568Z,84.90
2018-01-19T17:44:26.250Z,84.90
2018-01-19T17:46:53.978Z,84.70
2018-01-19T17:49:23.492Z,84.70
2018-01-19T17:51:52.845Z,84.40
2018-01-19T17:54:23.376Z,84.40
2018-01-19T17:56:53.209Z,84.30
2018-01-19T17:59:21.030Z,84.00
2018-01-19T18:01:50.218Z,84.00
2018-01-19T18:04:20.578Z,84.60
2018-01-19T18:06:49.810Z,85.00
2018-01-19T18:09:19.997Z,84.60
2018-01-19T18:11:49.133Z,84.60
2018-01-19T18:14:17.173Z,85.40
2018-01-19T18:16:45.360Z,85.40
2018-01-19T18:19:12.587Z,85.90
2018-01-19T18:21:40.146Z,86.20
2018-01-19T18:24:06.994Z,86.30
2018-01-19T18:26:33.988Z,86.00
2018-01-19T18:29:00.554Z,86.00
2018-01-19T18:31:27.262Z,85.80
2018-01-19T18:33:54.477Z,86.00
2018-01-19T18:36:22.309Z,85.60
2018-01-19T18:38:50.568Z,85.60
2018-01-19T18:41:20.142Z,85.90
2018-01-19T18:43:49.509Z,85.80
2018-01-19T18:46:19.121Z,85.50
2018-01-19T18:48:45.994Z,85.50
2018-01-19T18:51:13.005Z,85.80
2018-01-19T18:53:41.768Z,85.80
2018-01-19T18:56:09.026Z,85.90
2018-01-19T18:58:35.814Z,85.60
2018-01-19T19:01:02.820Z,85.30
2018-01-19T19:03:29.470Z,85.30
2018-01-19T19:05:56.298Z,85.60
2018-01-19T19:08:23.405Z,85.50
2018-01-19T19:10:51.618Z,85.90
2018-01-19T19:13:19.397Z,85.90
2018-01-19T19:15:47.125Z,85.60
2018-01-19T19:18:14.006Z,85.30
2018-01-19T19:20:42.161Z,85.50
2018-01-19T19:23:08.837Z,85.40
2018-01-19T19:25:35.489Z,85.00
2018-01-19T19:28:02.077Z,85.10
2018-01-19T19:30:28.705Z,84.90
2018-01-19T19:32:56.558Z,84.90
2018-01-19T19:35:23.337Z,84.90
2018-01-19T19:37:52.020Z,85.00
2018-01-19T19:40:22.017Z,85.00
2018-01-19T19:42:53.256Z,85.00
2018-01-19T19:45:21.058Z,84.50
2018-01-19T19:47:49.393Z,84.60
2018-01-19T19:50:17.274Z,84.00
2018-01-19T19:52:45.277Z,83.80
2018-01-19T19:55:11.997Z,83.90
2018-01-19T19:57:39.458Z,84.30
2018-01-19T20:00:07.494Z,83.50
2018-01-19T20:02:34.041Z,83.50
2018-01-19T20:05:00.617Z,83.70
2018-01-19T20:07:27.266Z,83.60
2018-01-19T20:09:54.237Z,83.70
2018-01-19T20:12:21.673Z,83.80
2018-01-19T20:14:49.018Z,83.80
2018-01-19T20:17:19.179Z,83.40
2018-01-19T20:19:47.626Z,83.40
2018-01-19T20:22:14.620Z,83.60
2018-01-19T20:24:42.400Z,83.40
2018-01-19T20:27:09.546Z,83.60
2018-01-19T20:29:36.490Z,83.40
2018-01-19T20:32:03.154Z,83.50
2018-01-19T20:34:29.832Z,84.00
2018-01-19T20:36:57.863Z,84.00
2018-01-19T20:39:25.732Z,84.20
2018-01-19T20:41:54.427Z,83.80
2018-01-19T20:44:23.834Z,83.70
2018-01-19T20:46:52.469Z,83.70
2018-01-19T20:49:22.118Z,83.70
2018-01-19T20:51:52.885Z,83.90
2018-01-19T20:54:22.719Z,83.90
2018-01-19T20:56:51.014Z,83.80
2018-01-19T20:59:20.933Z,83.90
2018-01-19T21:01:48.973Z,83.90
2018-01-19T21:04:17.209Z,83.80
2018-01-19T21:06:44.332Z,83.70
2018-01-19T21:09:11.646Z,83.60
2018-01-19T21:11:39.066Z,83.50
2018-01-19T21:14:06.152Z,83.50
2018-01-19T21:16:32.717Z,83.40
2018-01-19T21:18:59.293Z,83.50
2018-01-19T21:21:27.649Z,83.60
2018-01-19T21:23:54.538Z,83.70
2018-01-19T21:26:22.487Z,83.80
2018-01-19T21:28:51.091Z,84.20
2018-01-19T21:31:19.158Z,84.60
2018-01-19T21:33:49.157Z,84.70
2018-01-19T21:36:17.655Z,85.40
2018-01-19T21:38:44.808Z,85.40
2018-01-19T21:41:12.340Z,86.50
2018-01-19T21:43:40.401Z,86.90
2018-01-19T21:46:07.054Z,86.90
2018-01-19T21:48:33.637Z,87.00
2018-01-19T21:51:00.205Z,87.30
2018-01-19T21:53:27.286Z,86.90
2018-01-19T21:55:54.457Z,86.80
2018-01-19T21:58:21.482Z,87.00
2018-01-19T22:00:48.085Z,87.30
2018-01-19T22:03:14.685Z,87.50
2018-01-19T22:05:41.840Z,87.90
2018-01-19T22:08:08.368Z,87.90
2018-01-19T22:10:34.948Z,88.60
2018-01-19T22:13:01.889Z,89.30
2018-01-19T22:15:28.772Z,89.30
2018-01-19T22:17:55.453Z,89.70
2018-01-19T22:20:22.127Z,90.00
2018-01-19T22:22:48.668Z,90.30
2018-01-19T22:25:15.233Z,90.60
2018-01-19T22:27:43.720Z,91.00
2018-01-19T22:30:11.029Z,91.10
2018-01-19T22:32:39.272Z,91.30
2018-01-19T22:35:06.757Z,91.40
2018-01-19T22:37:34.620Z,91.70
2018-01-19T22:40:01.617Z,91.70
2018-01-19T22:42:28.489Z,91.80
2018-01-19T22:44:55.050Z,91.90
2018-01-19T22:47:21.721Z,91.70
2018-01-19T22:49:48.313Z,91.70
2018-01-19T22:52:15.417Z,91.50
2018-01-19T22:54:42.303Z,91.50
2018-01-19T22:57:09.470Z,91.40
2018-01-19T22:59:40.763Z,91.30
2018-01-19T23:02:10.868Z,91.50
2018-01-19T23:04:41.207Z,91.70
2018-01-19T23:07:10.601Z,91.90
2018-01-19T23:09:41.761Z,92.20
2018-01-19T23:12:10.976Z,92.30
2018-01-19T23:14:38.008Z,92.60
2018-01-19T23:17:04.545Z,92.70
2018-01-19T23:19:31.117Z,92.80
2018-01-19T23:21:57.698Z,93.00
2018-01-19T23:24:25.193Z,92.90
2018-01-19T23:26:54.634Z,92.90
2018-01-19T23:29:22.755Z,92.80
2018-01-19T23:31:54.058Z,92.60
2018-01-19T23:34:25.217Z,92.10
2018-01-19T23:36:55.006Z,92.10
2018-01-19T23:39:24.328Z,92.10
2018-01-19T23:41:55.039Z,92.00
2018-01-19T23:44:23.141Z,91.80
2018-01-19T23:46:52.828Z,91.70
2018-01-19T23:49:45.894Z,91.40
2018-01-19T23:52:23.227Z,91.40
2018-01-19T23:54:54.018Z,91.00
2018-01-19T23:57:26.672Z,90.90
2018-01-19T23:59:54.512Z,90.70
